Time;durP1;ratioP1;P1;durP2;ratioP2;P2;SDS_P1;SDS_P2;PMS_P1;PMS_P2;Temp;Humidity;BMP_temperature;BMP_pressure;BME280_temperature;BME280_humidity;BME280_pressure;Samples;Min_cycle;Max_cycle;Signal;HPM_P1;HPM_P2
2022/04/19 00:01:54;;;;;;;;;5.50;4.25;;;;;15.73;36.14;101033.53;5001970;28;45435;-64
2022/04/19 00:04:19;;;;;;;;;6.00;5.00;;;;;15.67;36.07;101029.31;5001361;28;45655;-64
2022/04/19 00:06:45;;;;;;;;;3.75;3.75;;;;;15.63;35.96;101040.88;5001474;28;46896;-64
2022/04/19 00:09:11;;;;;;;;;5.50;5.50;;;;;15.60;36.35;101039.19;5001235;28;45257;-64
2022/04/19 00:11:36;;;;;;;;;3.25;3.25;;;;;15.56;36.25;101031.41;5001324;28;45303;-64
2022/04/19 00:14:02;;;;;;;;;4.00;4.00;;;;;15.53;36.44;101031.50;5001514;28;45245;-64
2022/04/19 00:16:27;;;;;;;;;3.75;3.75;;;;;15.50;36.36;101037.75;5001237;28;46296;-64
2022/04/19 00:18:53;;;;;;;;;6.50;5.00;;;;;15.47;36.15;101024.63;5001453;28;45237;-64
2022/04/19 00:21:19;;;;;;;;;4.25;4.25;;;;;15.45;36.46;101021.13;5001393;28;45491;-64
2022/04/19 00:23:46;;;;;;;;;4.25;4.25;;;;;15.41;35.97;101015.06;5001362;28;45233;-64
2022/04/19 00:26:11;;;;;;;;;4.00;4.00;;;;;15.38;36.15;101008.97;5000591;28;45432;-64
2022/04/19 00:28:37;;;;;;;;;6.25;4.75;;;;;15.35;36.44;101001.16;5000995;28;45246;-64
2022/04/19 00:31:04;;;;;;;;;4.50;3.00;;;;;15.34;36.35;101004.69;4999764;28;45440;-64
2022/04/19 00:33:30;;;;;;;;;3.75;3.75;;;;;15.32;36.50;101010.06;5001176;28;45325;-64
2022/04/19 00:35:56;;;;;;;;;5.50;4.25;;;;;15.28;36.70;101014.56;4999532;28;47280;-65
2022/04/19 00:38:22;;;;;;;;;5.00;4.00;;;;;15.24;36.49;101009.41;5001122;28;45242;-64
2022/04/19 00:40:48;;;;;;;;;2.75;2.75;;;;;15.22;36.90;101016.50;5000744;28;45291;-65
2022/04/19 00:43:16;;;;;;;;;2.50;2.00;;;;;15.20;36.58;101013.91;5000997;28;45231;-64
2022/04/19 00:45:42;;;;;;;;;3.50;3.50;;;;;15.16;36.58;101006.97;5000889;28;46108;-65
2022/04/19 00:48:07;;;;;;;;;4.00;3.75;;;;;15.16;36.91;101012.28;5000891;28;45230;-65
2022/04/19 00:50:33;;;;;;;;;1.50;1.50;;;;;15.15;36.50;101009.69;4999572;28;45350;-64
2022/04/19 00:53:00;;;;;;;;;3.75;3.00;;;;;15.03;37.03;100995.88;5000954;28;45547;-65
2022/04/19 00:55:25;;;;;;;;;3.00;1.75;;;;;15.08;36.57;101006.31;5000189;28;45249;-64
2022/04/19 00:57:51;;;;;;;;;3.25;3.00;;;;;15.06;36.51;101011.66;5000198;28;45313;-65
2022/04/19 01:00:17;;;;;;;;;3.00;3.00;;;;;15.04;36.62;101002.91;5000872;28;45351;-65
2022/04/19 01:02:42;;;;;;;;;1.00;1.00;;;;;15.01;36.74;101004.78;5000731;28;45218;-65
2022/04/19 01:05:09;;;;;;;;;2.00;2.00;;;;;14.95;37.02;100995.22;5000230;28;46345;-65
2022/04/19 01:07:36;;;;;;;;;4.00;3.00;;;;;14.95;36.78;100995.22;5000620;28;45260;-65
2022/04/19 01:10:02;;;;;;;;;2.25;2.25;;;;;14.94;36.71;101002.31;5000159;28;45439;-65
2022/04/19 01:15:11;;;;;;;;;2.00;2.00;;;;;14.89;36.58;100998.94;5000418;28;45355;-65
2022/04/19 01:17:39;;;;;;;;;2.00;2.00;;;;;14.88;37.00;100996.31;5000370;28;45289;-65
2022/04/19 01:20:07;;;;;;;;;2.00;2.00;;;;;14.85;36.81;100999.03;4991807;28;45345;-66
2022/04/19 01:22:37;;;;;;;;;1.25;1.25;;;;;14.84;37.07;101003.47;5000475;28;46403;-65
2022/04/19 01:25:04;;;;;;;;;2.25;2.25;;;;;14.83;36.67;101001.75;4999730;28;46149;-66
2022/04/19 01:27:29;;;;;;;;;1.00;1.00;;;;;14.80;36.84;101001.81;5000378;28;45290;-65
2022/04/19 01:30:00;;;;;;;;;2.00;2.00;;;;;14.79;36.59;101000.06;5000192;28;45411;-66
2022/04/19 01:32:28;;;;;;;;;1.50;1.50;;;;;14.77;36.52;100999.25;5000166;28;45498;-66
2022/04/19 01:35:06;;;;;;;;;3.75;2.25;;;;;14.74;36.62;101001.97;4998566;28;45980;-65
2022/04/19 01:37:34;;;;;;;;;2.00;2.00;;;;;14.69;36.94;100996.84;5000158;28;45293;-65
2022/04/19 01:40:18;;;;;;;;;1.75;1.00;;;;;14.65;36.54;100987.22;4999993;28;45441;-65
2022/04/19 01:42:58;;;;;;;;;4.25;4.25;;;;;14.65;36.90;100999.59;4998730;28;45466;-65
2022/04/19 01:45:29;;;;;;;;;1.00;1.00;;;;;14.62;36.69;100995.22;5000027;28;47172;-65
2022/04/19 01:47:56;;;;;;;;;1.00;1.00;;;;;14.58;37.10;100991.78;4999967;28;45309;-65
2022/04/19 01:50:22;;;;;;;;;2.25;1.50;;;;;14.53;36.70;100991.03;5000124;28;45267;-67
2022/04/19 01:52:49;;;;;;;;;1.00;0.75;;;;;14.54;36.58;100999.84;4998661;28;45327;-65
2022/04/19 01:55:16;;;;;;;;;2.00;1.50;;;;;14.42;36.49;100983.38;4999558;28;45336;-65
2022/04/19 01:57:51;;;;;;;;;1.75;1.75;;;;;14.49;36.92;100991.16;5000005;28;45283;-65
2022/04/19 02:00:18;;;;;;;;;3.00;1.25;;;;;14.45;36.79;100993.00;5000006;28;45162;-65
2022/04/19 02:02:44;;;;;;;;;0.25;0.25;;;;;14.43;36.52;100994.84;4998769;28;45643;-65
2022/04/19 02:05:10;;;;;;;;;0.50;0.50;;;;;14.41;36.87;100999.28;4999351;28;47215;-65
2022/04/19 02:07:44;;;;;;;;;0.00;0.00;;;;;14.37;37.03;100995.88;4999796;28;45524;-65
2022/04/19 02:10:11;;;;;;;;;1.00;1.00;;;;;14.34;36.61;100985.38;5002173;28;45305;-65
2022/04/19 02:12:38;;;;;;;;;1.50;1.50;;;;;14.34;36.65;100989.78;5003135;28;45390;-65
2022/04/19 02:15:05;;;;;;;;;1.00;1.00;;;;;14.33;36.99;100988.94;5002863;28;46346;-65
2022/04/19 02:17:30;;;;;;;;;1.00;1.00;;;;;14.28;36.57;100981.09;5003301;28;45310;-65
2022/04/19 02:20:04;;;;;;;;;0.75;0.75;;;;;14.28;36.70;100982.91;5003068;28;45281;-65
2022/04/19 02:22:30;;;;;;;;;2.25;1.25;;;;;14.24;36.92;100979.47;5003238;28;45535;-65
2022/04/19 02:24:56;;;;;;;;;0.25;0.25;;;;;14.23;36.56;100980.34;5002516;28;45238;-65
2022/04/19 02:27:24;;;;;;;;;0.75;0.75;;;;;14.21;36.94;100979.53;5002981;28;45300;-65
2022/04/19 02:29:50;;;;;;;;;2.00;1.75;;;;;14.15;36.64;100974.41;5001641;28;45260;-65
2022/04/19 02:32:15;;;;;;;;;0.75;0.75;;;;;14.16;36.89;100980.56;5002851;28;45360;-65
2022/04/19 02:34:41;;;;;;;;;2.00;2.00;;;;;14.14;36.61;100983.25;5002590;28;46044;-64
2022/04/19 02:37:06;;;;;;;;;1.25;0.00;;;;;14.09;36.64;100980.72;5003166;28;45314;-65
2022/04/19 02:39:32;;;;;;;;;1.00;1.00;;;;;14.07;36.50;100971.94;5002612;28;45329;-65
2022/04/19 02:41:57;;;;;;;;;1.00;1.00;;;;;14.04;36.55;100979.09;5002940;28;45318;-65
2022/04/19 02:44:23;;;;;;;;;1.50;1.50;;;;;14.01;36.34;100976.53;5002509;28;47020;-65
2022/04/19 02:46:49;;;;;;;;;0.75;0.75;;;;;13.96;36.74;100964.31;5002826;28;45348;-65
2022/04/19 02:49:15;;;;;;;;;2.00;1.75;;;;;13.97;36.84;100975.72;5002887;28;45548;-65
2022/04/19 02:51:40;;;;;;;;;0.75;0.75;;;;;13.91;36.92;100970.59;5002398;28;45259;-65
2022/04/19 02:54:05;;;;;;;;;1.50;1.50;;;;;13.90;36.60;100969.72;5001967;28;46183;-65
2022/04/19 02:56:31;;;;;;;;;2.75;1.25;;;;;13.87;36.67;100969.78;5002520;28;45334;-65
2022/04/19 02:58:56;;;;;;;;;0.50;0.50;;;;;13.86;36.63;100965.44;5001374;28;45251;-65
2022/04/19 03:01:22;;;;;;;;;1.75;1.75;;;;;13.84;36.68;100969.88;5002441;28;45490;-65
2022/04/19 03:03:47;;;;;;;;;2.25;2.25;;;;;13.80;36.95;100962.94;5002151;28;46048;-65
2022/04/19 03:06:12;;;;;;;;;1.25;1.25;;;;;13.81;36.58;100978.75;5002192;28;45480;-64
2022/04/19 03:08:38;;;;;;;;;1.00;1.00;;;;;13.79;36.61;100982.34;5002372;28;45242;-64
2022/04/19 03:11:04;;;;;;;;;1.75;1.75;;;;;13.75;36.81;100973.59;5001992;28;45475;-64
2022/04/19 03:13:31;;;;;;;;;1.50;1.50;;;;;13.74;36.91;100978.94;5002210;28;45341;-64
2022/04/19 03:15:57;;;;;;;;;2.50;2.50;;;;;13.71;36.66;100968.44;5002071;28;45451;-64
2022/04/19 03:18:23;;;;;;;;;1.00;1.00;;;;;13.67;36.83;100972.06;5002094;28;45321;-64
2022/04/19 03:20:49;;;;;;;;;13.25;10.50;;;;;13.63;36.97;100963.34;5001633;28;45620;-64
2022/04/19 03:28:45;;;;;;;;;2.00;2.00;;;;;13.58;36.54;100967.84;5002264;28;45505;-64
2022/04/19 03:31:12;;;;;;;;;2.00;2.00;;;;;13.56;36.93;100965.25;5000411;28;45732;-64
2022/04/19 03:33:39;;;;;;;;;5.00;2.75;;;;;13.53;36.93;100964.44;5001844;28;47175;-64
2022/04/19 03:36:05;;;;;;;;;1.00;1.00;;;;;13.48;36.71;100965.44;5001762;28;45268;-64
2022/04/19 03:38:30;;;;;;;;;7.00;3.00;;;;;13.46;36.73;100963.72;5002016;28;45417;-64
2022/04/19 03:40:56;;;;;;;;;2.75;2.75;;;;;13.45;36.79;100962.00;5001376;28;45580;-64
2022/04/19 03:43:22;;;;;;;;;4.00;4.00;;;;;13.43;36.88;100963.78;5001753;28;46312;-64
2022/04/19 03:45:48;;;;;;;;;9.75;6.75;;;;;13.41;36.87;100962.94;5001644;28;45324;-64
2022/04/19 03:48:16;;;;;;;;;1.75;1.75;;;;;13.38;36.90;100968.31;5000666;28;45352;-64
2022/04/19 03:50:41;;;;;;;;;2.00;2.00;;;;;13.35;37.06;100963.94;5001644;28;45586;-64
2022/04/19 03:53:07;;;;;;;;;3.25;1.75;;;;;13.32;37.09;100961.38;5001679;28;46420;-64
2022/04/19 03:55:33;;;;;;;;;3.00;1.50;;;;;13.30;37.08;100963.16;5001297;28;45442;-64
2022/04/19 03:57:58;;;;;;;;;3.25;3.25;;;;;13.25;36.99;100954.47;5001849;28;45221;-64
2022/04/19 04:00:23;;;;;;;;;2.50;1.50;;;;;13.24;37.14;100953.59;5001493;28;45235;-64
2022/04/19 04:02:49;;;;;;;;;2.75;2.75;;;;;13.20;36.88;100944.03;5001650;28;45306;-64
2022/04/19 04:05:15;;;;;;;;;2.00;2.00;;;;;13.20;37.24;100951.94;5001275;28;45143;-65
2022/04/19 04:07:40;;;;;;;;;0.50;0.50;;;;;13.16;37.10;100945.84;5001715;28;45278;-65
2022/04/19 04:10:07;;;;;;;;;4.00;4.00;;;;;13.16;37.08;100950.28;4999858;28;45340;-65
2022/04/19 04:12:33;;;;;;;;;2.25;2.25;;;;;13.13;37.03;100956.50;5001506;28;46155;-65
2022/04/19 04:15:00;;;;;;;;;3.00;2.75;;;;;13.11;37.23;100953.00;5001379;28;45258;-65
2022/04/19 04:17:26;;;;;;;;;1.75;1.50;;;;;13.09;37.19;100952.16;5001580;28;45308;-64
2022/04/19 04:19:51;;;;;;;;;2.75;2.00;;;;;13.08;37.45;100952.19;4992677;28;45296;-64
2022/04/19 04:22:17;;;;;;;;;1.00;1.00;;;;;13.07;37.22;100950.44;5001254;28;46288;-65
2022/04/19 04:24:42;;;;;;;;;2.50;1.50;;;;;13.04;37.46;100948.75;5000882;28;45214;-64
2022/04/19 04:27:07;;;;;;;;;2.00;2.00;;;;;12.99;37.26;100945.34;5001392;28;45237;-64
2022/04/19 04:29:33;;;;;;;;;3.50;2.25;;;;;13.00;37.34;100955.00;5001075;28;45246;-64
2022/04/19 04:31:58;;;;;;;;;2.00;2.00;;;;;12.99;37.39;100954.16;5000257;28;46084;-64
2022/04/19 04:34:23;;;;;;;;;1.75;1.75;;;;;12.97;37.26;100957.72;5000964;28;45187;-64
2022/04/19 04:36:49;;;;;;;;;1.00;1.00;;;;;12.95;37.17;100956.88;5001310;28;45397;-64
2022/04/19 04:39:14;;;;;;;;;7.00;4.25;;;;;12.93;37.62;100951.63;4999372;28;45332;-64
2022/04/19 04:41:40;;;;;;;;;3.00;3.00;;;;;12.87;37.59;100950.88;5000928;28;46144;-64
2022/04/19 04:44:06;;;;;;;;;3.00;3.00;;;;;12.88;37.37;100953.50;5000797;28;45495;-64
2022/04/19 04:51:59;;;;;;;;;3.00;3.00;;;;;12.80;37.89;100956.28;5000418;28;45840;-65
2022/04/19 04:54:24;;;;;;;;;2.00;2.00;;;;;12.82;37.71;100959.75;5000321;28;45313;-68
2022/04/19 04:56:49;;;;;;;;;1.50;1.50;;;;;12.79;37.66;100957.19;4999628;28;45651;-66
2022/04/19 04:59:15;;;;;;;;;2.50;2.00;;;;;12.81;37.59;100960.63;5000942;28;45247;-67
2022/04/19 05:01:40;;;;;;;;;2.25;1.00;;;;;12.81;37.47;100959.78;4999489;28;45412;-66
2022/04/19 05:04:05;;;;;;;;;2.00;2.00;;;;;12.76;37.72;100951.97;5000528;28;45369;-65
2022/04/19 05:06:31;;;;;;;;;3.75;2.50;;;;;12.80;37.75;100960.69;5000612;28;45344;-64
2022/04/19 05:08:56;;;;;;;;;8.00;4.75;;;;;12.80;37.68;100964.22;5000214;28;45417;-63
2022/04/19 05:11:22;;;;;;;;;5.50;4.25;;;;;12.81;37.83;100965.06;4999022;28;46694;-63
2022/04/19 05:13:47;;;;;;;;;4.75;3.25;;;;;12.76;37.76;100956.38;5000409;28;45286;-64
2022/04/19 05:16:13;;;;;;;;;2.00;2.00;;;;;12.81;37.55;100965.06;5000616;28;45326;-62
2022/04/19 05:18:38;;;;;;;;;2.25;2.25;;;;;12.82;37.85;100975.56;5000312;28;45322;-62
2022/04/19 05:21:05;;;;;;;;;1.00;1.00;;;;;12.83;37.83;100968.53;5000658;28;45427;-65
2022/04/19 05:23:30;;;;;;;;;1.00;1.00;;;;;12.84;37.79;100975.53;5000195;28;45179;-63
2022/04/19 05:25:56;;;;;;;;;2.00;2.00;;;;;12.83;37.76;100966.75;4998905;28;45388;-69
2022/04/19 05:28:21;;;;;;;;;3.50;2.25;;;;;12.85;37.85;100972.00;5000280;28;45301;-65
2022/04/19 05:30:46;;;;;;;;;3.00;3.00;;;;;12.85;38.18;100972.00;5000093;28;45389;-64
2022/04/19 05:33:12;;;;;;;;;2.25;2.25;;;;;12.85;38.09;100966.72;5000234;28;45167;-63
2022/04/19 05:35:38;;;;;;;;;3.25;3.25;;;;;12.88;37.73;100971.06;4999027;28;45172;-64
2022/04/19 05:38:04;;;;;;;;;5.75;4.75;;;;;12.86;38.17;100965.84;5000145;28;45227;-62
2022/04/19 05:40:29;;;;;;;;;2.25;0.00;;;;;12.90;38.17;100975.41;4999731;28;46558;-63
2022/04/19 05:42:54;;;;;;;;;3.00;3.00;;;;;12.88;38.18;100968.44;4999888;28;45225;-63
2022/04/19 05:45:20;;;;;;;;;4.25;3.00;;;;;12.91;38.35;100977.16;4999982;28;46077;-61
2022/04/19 05:47:45;;;;;;;;;4.00;4.00;;;;;12.91;38.15;100976.31;4999530;28;45649;-61
2022/04/19 05:50:11;;;;;;;;;4.50;2.75;;;;;12.91;38.43;100984.22;4999894;28;45294;-68
2022/04/19 05:52:37;;;;;;;;;6.00;3.50;;;;;12.92;38.15;100971.00;4999877;28;45305;-57
2022/04/19 05:55:04;;;;;;;;;2.00;2.00;;;;;12.93;38.15;100975.38;4999555;28;45262;-58
2022/04/19 05:57:29;;;;;;;;;3.00;2.00;;;;;12.92;38.42;100975.41;4998467;28;45388;-62
2022/04/19 05:59:55;;;;;;;;;2.75;2.75;;;;;12.95;38.55;100975.31;4998212;28;46223;-60
2022/04/19 06:05:04;;;;;;;;;2.75;2.75;;;;;12.97;38.74;100971.75;5001088;28;45514;-56
2022/04/19 06:07:30;;;;;;;;;2.25;2.25;;;;;12.97;38.68;100969.13;5001458;28;45518;-63
2022/04/19 06:09:57;;;;;;;;;4.25;4.25;;;;;12.99;38.69;100967.34;5004152;28;46435;-56
2022/04/19 06:12:22;;;;;;;;;4.75;2.00;;;;;13.03;38.69;100973.41;4999351;28;45281;-54
2022/04/19 06:14:48;;;;;;;;;3.25;3.25;;;;;13.06;38.68;100975.97;4999493;28;45309;-56
2022/04/19 06:17:15;;;;;;;;;4.00;3.75;;;;;13.09;38.96;100972.41;4990783;28;45716;-56
2022/04/19 06:19:41;;;;;;;;;5.00;4.00;;;;;13.09;38.84;100967.13;4994860;28;45474;-58
2022/04/19 06:22:07;;;;;;;;;2.00;2.00;;;;;13.11;38.99;100970.63;5000019;28;45511;-59
2022/04/19 06:24:32;;;;;;;;;4.00;3.75;;;;;13.14;38.88;100970.53;4997866;28;45271;-57
2022/04/19 06:26:57;;;;;;;;;3.00;2.50;;;;;13.15;38.89;100977.56;4999508;28;45389;-58
2022/04/19 06:29:23;;;;;;;;;4.25;3.50;;;;;13.16;38.95;100974.03;4999143;28;46219;-59
2022/04/19 06:31:48;;;;;;;;;3.25;3.25;;;;;13.17;38.97;100981.91;4999396;28;45440;-57
2022/04/19 06:34:14;;;;;;;;;2.50;2.50;;;;;13.18;39.15;100985.38;4997805;28;45381;-56
2022/04/19 06:36:40;;;;;;;;;2.00;1.00;;;;;13.19;39.22;100981.84;4999547;28;45629;-54
2022/04/19 06:39:05;;;;;;;;;3.50;2.25;;;;;13.21;38.99;100984.50;4998859;28;46845;-54
2022/04/19 06:41:31;;;;;;;;;2.50;2.50;;;;;13.21;39.22;100987.97;4998261;28;45363;-54
2022/04/19 06:43:59;;;;;;;;;3.50;2.50;;;;;13.22;39.37;100980.91;5010540;28;45309;-53
2022/04/19 06:46:25;;;;;;;;;4.00;2.50;;;;;13.22;39.24;100973.00;4999414;28;45548;-55
2022/04/19 06:48:56;;;;;;;;;1.75;1.50;;;;;13.24;39.37;100979.13;4999148;28;47166;-55
2022/04/19 06:51:22;;;;;;;;;4.00;3.00;;;;;13.22;39.25;100971.25;4999215;28;45354;-55
2022/04/19 06:53:48;;;;;;;;;4.50;4.00;;;;;13.26;39.44;100974.69;4997804;28;45308;-54
2022/04/19 06:56:14;;;;;;;;;5.50;2.75;;;;;13.25;39.50;100979.09;5000373;28;45575;-55
2022/04/19 06:58:40;;;;;;;;;2.75;2.00;;;;;13.29;39.62;100979.91;5002300;28;46025;-55
2022/04/19 07:01:06;;;;;;;;;6.25;6.00;;;;;13.30;39.23;100971.09;5005135;28;45586;-55
2022/04/19 07:03:33;;;;;;;;;3.00;3.00;;;;;13.30;39.70;100977.22;5002677;28;45308;-55
2022/04/19 07:05:59;;;;;;;;;6.25;6.25;;;;;13.32;39.62;100972.78;5002209;28;45419;-55
2022/04/19 07:08:24;;;;;;;;;5.25;5.00;;;;;13.32;39.58;100979.84;5001942;28;46195;-54
2022/04/19 07:10:49;;;;;;;;;3.25;3.25;;;;;13.34;39.71;100978.03;5002023;28;45340;-53
2022/04/19 07:13:15;;;;;;;;;3.00;3.00;;;;;13.35;39.68;100974.50;5002298;28;45377;-55
2022/04/19 07:15:40;;;;;;;;;5.25;4.00;;;;;13.38;39.91;100976.22;5002309;28;45425;-54
2022/04/19 07:18:06;;;;;;;;;4.25;3.75;;;;;13.41;39.65;100970.84;5002103;28;46215;-55
2022/04/19 07:28:43;;;;;;;;;8.75;4.75;;;;;13.48;39.57;100972.47;5002058;28;45434;-53
2022/04/19 07:31:09;;;;;;;;;7.75;5.25;;;;;13.54;40.26;100972.31;5001533;28;45314;-54
2022/04/19 07:33:39;;;;;;;;;3.50;3.50;;;;;13.57;39.90;100966.09;5002318;28;45294;-54
2022/04/19 07:36:05;;;;;;;;;6.50;5.75;;;;;13.60;39.58;100971.34;5001791;28;45557;-53
2022/04/19 07:38:31;;;;;;;;;5.00;3.00;;;;;13.63;40.13;100966.84;5001605;28;46173;-55
2022/04/19 07:40:57;;;;;;;;;6.00;5.00;;;;;13.67;39.99;100967.63;5001558;28;45316;-55
2022/04/19 07:43:22;;;;;;;;;5.25;4.75;;;;;13.72;39.96;100959.59;5002093;28;45329;-55
2022/04/19 07:45:48;;;;;;;;;4.50;4.00;;;;;13.75;39.85;100957.75;5001696;28;45472;-54
2022/04/19 07:48:13;;;;;;;;;4.00;4.00;;;;;13.79;40.00;100967.34;5001985;28;46259;-55
2022/04/19 07:50:39;;;;;;;;;3.75;3.75;;;;;13.84;39.99;100966.38;5001879;28;45289;-55
2022/04/19 07:53:05;;;;;;;;;5.00;5.00;;;;;13.88;40.22;100963.59;5000539;28;45313;-55
2022/04/19 07:55:30;;;;;;;;;4.00;4.00;;;;;13.93;40.08;100964.34;5001395;28;45360;-55
2022/04/19 07:57:56;;;;;;;;;4.75;3.75;;;;;13.94;39.86;100960.81;5001548;28;46121;-55
2022/04/19 08:00:21;;;;;;;;;3.25;3.25;;;;;14.05;40.01;100967.59;5000320;28;45235;-55
2022/04/19 08:02:47;;;;;;;;;2.00;2.00;;;;;14.11;39.88;100967.44;5001849;28;45285;-55
2022/04/19 08:05:13;;;;;;;;;2.25;1.75;;;;;14.17;40.18;100967.28;5000984;28;45283;-55
2022/04/19 08:07:39;;;;;;;;;5.00;3.50;;;;;14.23;39.61;100966.28;5000033;28;45422;-54
2022/04/19 08:10:05;;;;;;;;;3.75;2.50;;;;;14.29;39.55;100964.34;4999769;28;45357;-55
2022/04/19 08:12:31;;;;;;;;;0.75;0.25;;;;;14.37;39.97;100971.22;5001426;28;45270;-56
2022/04/19 08:14:57;;;;;;;;;2.75;2.25;;;;;14.43;40.06;100958.69;5001365;28;45297;-55
2022/04/19 08:17:22;;;;;;;;;4.00;3.00;;;;;14.50;39.94;100962.03;4996842;28;46197;-54
2022/04/19 08:19:47;;;;;;;;;5.00;4.00;;;;;14.57;39.98;100957.47;5001327;28;45334;-55
2022/04/19 08:22:13;;;;;;;;;4.50;2.75;;;;;14.62;39.46;100959.06;5001462;28;45484;-55
2022/04/19 08:24:38;;;;;;;;;5.00;3.75;;;;;14.68;39.56;100957.19;5001141;28;45380;-55
2022/04/19 08:27:04;;;;;;;;;3.00;3.00;;;;;14.75;39.68;100958.75;5001102;28;46849;-55
2022/04/19 08:29:30;;;;;;;;;3.00;3.00;;;;;14.82;39.68;100957.66;5001199;28;45415;-55
2022/04/19 08:31:55;;;;;;;;;3.25;3.25;;;;;14.89;39.79;100959.25;5001239;28;45292;-55
2022/04/19 08:34:21;;;;;;;;;2.25;2.25;;;;;14.95;39.55;100958.19;4999724;28;45228;-55
2022/04/19 08:36:47;;;;;;;;;1.50;1.50;;;;;15.03;39.12;100957.94;5001037;28;46058;-55
2022/04/19 08:39:12;;;;;;;;;3.75;2.00;;;;;15.11;39.66;100950.66;5000755;28;45226;-54
2022/04/19 08:41:40;;;;;;;;;2.25;2.25;;;;;15.19;39.20;100959.22;4999904;28;45302;-54
2022/04/19 08:44:05;;;;;;;;;2.00;2.00;;;;;15.27;39.49;100962.53;5000988;28;45167;-55
2022/04/19 08:46:39;;;;;;;;;4.00;2.25;;;;;15.33;39.10;100944.72;5000669;28;46245;-55
2022/04/19 08:49:04;;;;;;;;;2.50;2.50;;;;;15.42;39.50;100955.00;5000854;28;45176;-55
2022/04/19 08:51:35;;;;;;;;;2.25;1.50;;;;;15.48;39.27;100951.31;4999439;28;45270;-55
2022/04/19 08:59:54;;;;;;;;;2.25;2.25;;;;;15.70;38.87;100939.13;4978803;28;45610;-55
2022/04/19 09:02:26;;;;;;;;;2.50;2.50;;;;;15.80;39.25;100949.41;4991812;28;45285;-54
2022/04/19 09:04:53;;;;;;;;;3.25;2.25;;;;;15.88;38.62;100942.97;4999045;28;45251;-54
2022/04/19 09:07:23;;;;;;;;;3.00;3.00;;;;;15.96;39.02;100939.22;5000641;28;45251;-54
2022/04/19 09:09:59;;;;;;;;;4.50;3.50;;;;;16.05;38.75;100945.06;5000062;28;45290;-55
2022/04/19 09:12:24;;;;;;;;;1.75;1.00;;;;;16.16;38.82;100934.13;4999207;28;45389;-54
2022/04/19 09:15:06;;;;;;;;;3.25;2.25;;;;;16.28;38.85;100940.75;5000545;28;45289;-54
2022/04/19 09:17:33;;;;;;;;;3.75;3.75;;;;;16.39;38.60;100930.66;4998361;28;47251;-55
2022/04/19 09:20:18;;;;;;;;;3.75;3.50;;;;;16.51;38.87;100939.94;5000269;28;45265;-55
2022/04/19 09:22:45;;;;;;;;;2.50;2.00;;;;;16.61;38.69;100937.81;5000273;28;45351;-55
2022/04/19 09:25:26;;;;;;;;;3.00;3.00;;;;;16.75;38.41;100939.97;4999894;28;45304;-55
2022/04/19 09:27:56;;;;;;;;;4.50;3.25;;;;;16.86;38.45;100945.75;5000195;28;45285;-54
2022/04/19 09:30:23;;;;;;;;;4.75;2.75;;;;;16.95;38.25;100935.75;5000009;28;45241;-55
2022/04/19 09:33:02;;;;;;;;;5.00;4.00;;;;;17.08;38.39;100929.06;5000473;28;45428;-55
2022/04/19 09:35:39;;;;;;;;;5.50;3.25;;;;;17.16;38.44;100940.25;5000117;28;45467;-54
2022/04/19 09:38:07;;;;;;;;;7.00;5.00;;;;;17.24;38.20;100937.28;5000065;28;46249;-55
2022/04/19 09:40:36;;;;;;;;;4.50;4.00;;;;;17.33;37.95;100936.94;4999536;28;45453;-55
2022/04/19 09:43:20;;;;;;;;;5.50;5.00;;;;;17.43;38.15;100929.44;5000081;28;45346;-56
2022/04/19 09:46:03;;;;;;;;;5.25;5.25;;;;;17.55;37.79;100920.13;5000028;28;45357;-55
2022/04/19 09:48:35;;;;;;;;;1.75;1.25;;;;;17.63;38.08;100917.16;4999972;28;46986;-55
2022/04/19 09:51:09;;;;;;;;;5.00;5.00;;;;;17.73;37.86;100920.31;4999970;28;45194;-55
2022/04/19 09:53:47;;;;;;;;;5.00;5.00;;;;;17.85;37.83;100919.81;4999707;28;45337;-55
2022/04/19 09:56:15;;;;;;;;;5.50;5.50;;;;;17.97;37.89;100911.31;4999536;28;45444;-55
2022/04/19 09:58:43;;;;;;;;;9.00;7.00;;;;;18.11;37.50;100918.75;4999762;28;46754;-55
2022/04/19 10:08:10;;;;;;;;;3.00;2.25;;;;;18.24;37.89;100910.19;4999674;28;45349;-55
2022/04/19 10:09:25;;;;;;;;;7.25;4.75;;;;;18.70;37.38;100902.84;4978292;28;45343;-58
2022/04/19 10:11:51;;;;;;;;;7.00;6.00;;;;;18.84;37.69;100900.41;4999656;28;45337;-58
2022/04/19 10:14:18;;;;;;;;;5.00;5.00;;;;;18.98;37.55;100885.59;4998397;28;45448;-58
2022/04/19 10:16:44;;;;;;;;;5.25;4.75;;;;;19.16;37.38;100889.22;4998239;28;45570;-58
2022/04/19 10:19:10;;;;;;;;;8.25;5.50;;;;;19.32;37.30;100886.69;5014653;28;46317;-58
2022/04/19 10:21:41;;;;;;;;;8.25;7.50;;;;;19.45;36.77;100887.78;4999517;28;45453;-58
2022/04/19 10:24:17;;;;;;;;;6.75;5.50;;;;;19.58;37.16;100879.19;4999224;28;45420;-57
2022/04/19 10:26:51;;;;;;;;;6.75;5.00;;;;;19.73;37.29;100872.22;4999467;28;45311;-59
2022/04/19 10:29:29;;;;;;;;;5.75;5.25;;;;;19.90;36.65;100876.72;4999244;28;46228;-58
2022/04/19 10:31:55;;;;;;;;;7.25;7.00;;;;;20.05;36.50;100870.63;5002713;28;45437;-58
2022/04/19 10:34:28;;;;;;;;;7.75;6.00;;;;;20.21;36.37;100877.81;5003041;28;45344;-58
2022/04/19 10:37:00;;;;;;;;;8.25;6.00;;;;;20.35;36.80;100877.97;5002795;28;45247;-58
2022/04/19 10:39:33;;;;;;;;;8.50;6.75;;;;;20.53;36.26;100880.59;5002384;28;45364;-58
2022/04/19 10:42:05;;;;;;;;;6.50;6.50;;;;;20.74;36.69;100874.13;5001186;28;45410;-58
2022/04/19 10:44:32;;;;;;;;;2.00;0.00;;;;;20.93;36.66;100873.94;5002751;28;45400;-57
2022/04/19 10:47:11;;;;;;;;;6.50;6.00;;;;;21.15;35.91;100872.75;5002424;28;45490;-57
2022/04/19 10:50:05;;;;;;;;;6.00;5.25;;;;;21.37;36.32;100864.38;5002457;28;46019;-57
2022/04/19 10:52:39;;;;;;;;;4.00;4.00;;;;;21.62;36.30;100864.78;5001204;28;45500;-60
2022/04/19 10:55:14;;;;;;;;;8.00;4.75;;;;;21.92;36.14;100856.75;5002032;28;45259;-58
2022/04/19 11:00:32;;;;;;;;;5.25;5.25;;;;;22.71;35.58;100857.28;5002370;28;45606;-62
2022/04/19 11:03:00;;;;;;;;;6.50;6.50;;;;;23.13;35.67;100857.28;5002256;28;45447;-62
2022/04/19 11:05:45;;;;;;;;;8.00;7.00;;;;;23.64;35.55;100853.97;5000974;28;45279;-62
2022/04/19 11:08:29;;;;;;;;;4.75;4.00;;;;;24.05;35.57;100839.59;5000799;28;45442;-61
2022/04/19 11:11:06;;;;;;;;;7.75;6.50;;;;;24.55;35.01;100850.38;5001979;28;45552;-61
2022/04/19 11:13:36;;;;;;;;;6.50;6.00;;;;;25.02;35.21;100850.63;5002520;28;45195;-61
2022/04/19 11:16:05;;;;;;;;;9.50;9.50;;;;;25.47;34.94;100845.53;4998411;28;45517;-60
2022/04/19 11:18:32;;;;;;;;;5.00;5.00;;;;;25.89;34.38;100836.97;5002139;28;45334;-60
2022/04/19 11:20:59;;;;;;;;;7.50;7.50;;;;;26.28;34.02;100834.84;5001906;28;46222;-61
2022/04/19 11:23:28;;;;;;;;;9.00;7.00;;;;;26.64;33.83;100831.16;5001778;28;45438;-61
2022/04/19 11:25:55;;;;;;;;;7.50;6.50;;;;;27.02;33.72;100835.28;5001808;28;45487;-60
2022/04/19 11:28:21;;;;;;;;;7.25;5.25;;;;;27.43;33.68;100825.59;5001968;28;45471;-61
2022/04/19 11:30:50;;;;;;;;;9.25;8.50;;;;;27.89;33.50;100829.75;5001664;28;45328;-61
2022/04/19 11:33:28;;;;;;;;;7.25;6.25;;;;;28.36;33.34;100832.06;5001767;28;45217;-62
2022/04/19 11:36:03;;;;;;;;;6.75;6.75;;;;;28.86;32.98;100833.09;5000626;28;45516;-61
2022/04/19 11:38:30;;;;;;;;;7.50;6.50;;;;;29.31;32.81;100827.19;5001489;28;45346;-60
2022/04/19 11:46:45;;;;;;;;;10.00;9.00;;;;;30.64;31.91;100836.31;5001821;28;45171;-60
2022/04/19 11:49:22;;;;;;;;;9.00;9.00;;;;;30.93;31.47;100829.00;5000548;28;45403;-61
2022/04/19 11:51:52;;;;;;;;;7.00;6.75;;;;;31.14;30.79;100825.19;5001315;28;45342;-61
2022/04/19 11:54:22;;;;;;;;;12.50;12.50;;;;;31.30;31.28;100830.78;5001068;28;45450;-61
2022/04/19 11:57:00;;;;;;;;;12.00;9.00;;;;;31.42;30.92;100842.22;5001634;28;45306;-61
2022/04/19 11:59:28;;;;;;;;;7.75;6.75;;;;;31.51;30.29;100829.59;5001379;28;45342;-62
2022/04/19 12:01:54;;;;;;;;;8.00;8.00;;;;;31.62;30.32;100829.34;5001284;28;46174;-62
2022/04/19 12:04:19;;;;;;;;;9.00;9.00;;;;;31.77;30.12;100832.38;5000851;28;45455;-62
2022/04/19 12:06:52;;;;;;;;;11.25;10.50;;;;;31.96;30.00;100825.03;5001231;28;45594;-63
2022/04/19 12:09:18;;;;;;;;;12.25;9.75;;;;;32.18;29.92;100820.91;5000902;28;45396;-62
2022/04/19 12:11:46;;;;;;;;;9.75;8.75;;;;;32.42;29.28;100822.94;5000987;28;45469;-62